createdAt,value
2018-05-24T00:00:08.037Z,18.19
2018-05-24T00:01:08.045Z,18.13
2018-05-24T00:03:01.498Z,18.17
2018-05-24T00:04:01.517Z,18.11
2018-05-24T00:05:56.886Z,18.27
2018-05-24T00:06:55.978Z,18.31
2018-05-24T00:08:51.423Z,18.32
2018-05-24T00:09:50.407Z,18.29
2018-05-24T00:11:43.818Z,18.38
2018-05-24T00:12:43.822Z,18.41
2018-05-24T00:14:40.293Z,18.38
2018-05-24T00:15:39.789Z,18.38
2018-05-24T00:17:34.219Z,18.44
2018-05-24T00:18:34.220Z,18.51
2018-05-24T00:20:28.645Z,18.65
2018-05-24T00:21:28.669Z,18.57
2018-05-24T00:23:24.631Z,18.63
2018-05-24T00:24:23.119Z,18.65
2018-05-24T00:26:18.072Z,18.63
2018-05-24T00:27:17.626Z,18.63
2018-05-24T00:29:12.015Z,18.60
2018-05-24T00:30:12.034Z,18.47
2018-05-24T00:32:05.474Z,18.69
2018-05-24T00:33:05.459Z,18.61
2018-05-24T00:35:00.927Z,18.68
2018-05-24T00:35:59.932Z,18.75
2018-05-24T00:37:54.403Z,18.86
2018-05-24T00:38:54.897Z,18.75
2018-05-24T00:40:48.783Z,18.76
2018-05-24T00:41:49.326Z,18.75
2018-05-24T00:43:43.264Z,18.89
2018-05-24T00:44:43.237Z,18.93
2018-05-24T00:46:39.183Z,19.05
2018-05-24T00:47:39.184Z,18.93
2018-05-24T00:49:34.147Z,18.97
2018-05-24T00:50:33.652Z,18.93
2018-05-24T00:52:30.096Z,18.97
2018-05-24T00:53:29.599Z,18.91
2018-05-24T00:55:24.047Z,18.81
2018-05-24T00:56:24.053Z,18.76
2018-05-24T00:58:19.504Z,18.75
2018-05-24T00:59:18.512Z,18.81
2018-05-24T01:01:12.989Z,18.81
2018-05-24T01:02:12.946Z,18.76
2018-05-24T01:04:08.891Z,18.65
2018-05-24T01:05:08.868Z,18.63
2018-05-24T01:07:04.815Z,18.61
2018-05-24T01:08:03.842Z,18.57
2018-05-24T01:09:56.768Z,18.57
2018-05-24T01:10:57.275Z,18.66
2018-05-24T01:12:51.244Z,18.61
2018-05-24T01:13:51.219Z,18.57
2018-05-24T01:15:47.253Z,18.59
2018-05-24T01:16:47.174Z,18.60
2018-05-24T01:18:41.623Z,18.47
2018-05-24T01:19:41.622Z,18.50
2018-05-24T01:21:36.617Z,18.49
2018-05-24T01:22:36.037Z,18.49
2018-05-24T01:24:30.478Z,18.50
2018-05-24T01:25:30.507Z,18.44
2018-05-24T01:27:24.952Z,18.44
2018-05-24T01:28:24.959Z,18.38
2018-05-24T01:30:18.417Z,18.34
2018-05-24T01:31:18.912Z,18.44
2018-05-24T01:33:12.383Z,18.42
2018-05-24T01:34:11.853Z,18.36
2018-05-24T01:36:06.338Z,18.42
2018-05-24T01:37:08.829Z,18.42
2018-05-24T01:38:59.784Z,18.35
2018-05-24T01:39:59.765Z,18.34
2018-05-24T01:41:54.716Z,18.34
2018-05-24T01:42:53.205Z,18.47
2018-05-24T01:44:49.159Z,18.41
2018-05-24T01:45:49.156Z,18.38
2018-05-24T01:47:45.128Z,18.41
2018-05-24T01:48:45.118Z,18.38
2018-05-24T01:50:40.562Z,18.44
2018-05-24T01:51:39.585Z,18.36
2018-05-24T01:53:34.036Z,18.38
2018-05-24T01:54:33.034Z,18.27
2018-05-24T01:56:29.002Z,18.29
2018-05-24T01:57:29.002Z,18.23
2018-05-24T01:59:23.951Z,18.32
2018-05-24T02:00:23.949Z,18.20
2018-05-24T02:02:18.401Z,18.19
2018-05-24T02:03:17.895Z,18.20
2018-05-24T02:05:12.344Z,18.19
2018-05-24T02:06:12.852Z,18.17
2018-05-24T02:08:05.824Z,18.13
2018-05-24T02:09:05.809Z,18.16
2018-05-24T02:10:59.769Z,18.08
2018-05-24T02:11:59.770Z,18.02
2018-05-24T02:13:52.686Z,17.99
2018-05-24T02:14:52.691Z,18.02
2018-05-24T02:16:48.086Z,18.02
2018-05-24T02:17:47.134Z,18.02
2018-05-24T02:19:41.608Z,18.05
2018-05-24T02:20:41.585Z,18.10
2018-05-24T02:22:36.541Z,18.03
2018-05-24T02:23:36.031Z,17.98
2018-05-24T02:25:29.507Z,17.94
2018-05-24T02:26:29.479Z,17.98
2018-05-24T02:28:24.448Z,17.99
2018-05-24T02:29:24.458Z,18.01
2018-05-24T02:31:19.897Z,17.94
2018-05-24T02:32:18.356Z,17.92
2018-05-24T02:34:12.805Z,17.96
2018-05-24T02:35:13.307Z,18.01
2018-05-24T02:37:07.238Z,18.02
2018-05-24T02:38:07.245Z,17.96
2018-05-24T02:40:01.709Z,17.94
2018-05-24T02:41:02.719Z,17.84
2018-05-24T02:42:56.177Z,17.84
2018-05-24T02:43:56.182Z,17.88
2018-05-24T02:45:49.618Z,17.92
2018-05-24T02:46:49.603Z,17.86
2018-05-24T02:48:44.057Z,17.88
2018-05-24T02:49:44.053Z,17.94
2018-05-24T02:51:38.473Z,17.94
2018-05-24T02:52:39.004Z,17.96
2018-05-24T02:54:33.427Z,17.98
2018-05-24T02:55:33.436Z,17.95
2018-05-24T02:57:27.897Z,17.96
2018-05-24T02:58:27.886Z,17.95
2018-05-24T03:00:22.351Z,17.92
2018-05-24T03:01:22.333Z,17.98
2018-05-24T03:03:15.282Z,18.02
2018-05-24T03:04:15.280Z,18.01
2018-05-24T03:06:11.296Z,18.01
2018-05-24T03:07:11.235Z,18.03
2018-05-24T03:09:06.199Z,18.03
2018-05-24T03:10:06.700Z,18.02
2018-05-24T03:11:59.186Z,18.03
2018-05-24T03:12:59.654Z,18.14
2018-05-24T03:14:53.586Z,18.02
2018-05-24T03:15:53.685Z,17.99
2018-05-24T03:17:48.065Z,18.01
2018-05-24T03:18:48.041Z,18.08
2018-05-24T03:20:41.512Z,17.96
2018-05-24T03:21:41.497Z,18.02
2018-05-24T03:23:35.959Z,18.14
2018-05-24T03:24:36.478Z,18.05
2018-05-24T03:26:30.422Z,18.02
2018-05-24T03:27:30.403Z,17.98
2018-05-24T03:29:25.373Z,18.06
2018-05-24T03:30:24.866Z,17.98
2018-05-24T03:32:19.335Z,18.01
2018-05-24T03:33:19.334Z,17.94
2018-05-24T03:35:12.777Z,17.95
2018-05-24T03:36:13.298Z,17.94
2018-05-24T03:38:07.740Z,17.99
2018-05-24T03:39:07.745Z,17.94
2018-05-24T03:41:02.188Z,17.88
2018-05-24T03:42:01.650Z,17.87
2018-05-24T03:43:55.102Z,17.86
2018-05-24T03:44:55.609Z,17.84
2018-05-24T03:46:48.587Z,17.76
2018-05-24T03:47:48.553Z,17.83
2018-05-24T03:49:43.540Z,17.80
2018-05-24T03:50:43.011Z,17.77
2018-05-24T03:52:36.487Z,17.77
2018-05-24T03:53:36.463Z,17.79
2018-05-24T03:55:30.898Z,17.71
2018-05-24T03:56:30.912Z,17.65
2018-05-24T03:58:25.374Z,17.76
2018-05-24T03:59:25.376Z,17.68
2018-05-24T04:01:20.335Z,17.69
2018-05-24T04:02:19.798Z,17.68
2018-05-24T04:04:14.268Z,17.65
2018-05-24T04:05:14.279Z,17.76
2018-05-24T04:07:08.744Z,17.71
2018-05-24T04:08:08.719Z,17.77
2018-05-24T04:10:03.160Z,17.76
2018-05-24T04:11:03.678Z,17.74
2018-05-24T04:12:59.671Z,17.65
2018-05-24T04:13:59.113Z,17.65
2018-05-24T04:15:55.103Z,17.73
2018-05-24T04:16:55.076Z,17.65
2018-05-24T04:18:51.519Z,17.69
2018-05-24T04:19:51.015Z,17.63
2018-05-24T04:21:46.931Z,17.62
2018-05-24T04:22:46.915Z,17.58
2018-05-24T04:24:41.393Z,17.57
2018-05-24T04:25:41.385Z,17.57
2018-05-24T04:27:35.819Z,17.66
2018-05-24T04:28:35.836Z,17.60
2018-05-24T04:30:30.283Z,17.54
2018-05-24T04:31:30.280Z,17.45
2018-05-24T04:33:25.233Z,17.43
2018-05-24T04:34:24.720Z,17.46
2018-05-24T04:36:20.662Z,17.38
2018-05-24T04:37:20.660Z,17.40
2018-05-24T04:39:15.164Z,17.39
2018-05-24T04:40:17.050Z,17.38
2018-05-24T04:42:08.564Z,17.42
2018-05-24T04:43:08.572Z,17.45
2018-05-24T04:45:03.534Z,17.35
2018-05-24T04:46:03.035Z,17.39
2018-05-24T04:47:57.473Z,17.36
2018-05-24T04:48:57.457Z,17.38
2018-05-24T04:50:51.915Z,17.35
2018-05-24T04:51:52.849Z,17.32
2018-05-24T04:53:45.868Z,17.35
2018-05-24T04:54:45.377Z,17.43
2018-05-24T04:56:39.804Z,17.36
2018-05-24T04:57:39.791Z,17.39
2018-05-24T04:59:35.748Z,17.38
2018-05-24T05:00:34.247Z,17.43
2018-05-24T05:02:27.716Z,17.39
2018-05-24T05:03:27.714Z,17.30
2018-05-24T05:05:25.680Z,17.36
2018-05-24T05:06:23.675Z,17.31
2018-05-24T05:08:18.640Z,17.40
2018-05-24T05:09:18.141Z,17.36
2018-05-24T05:11:12.626Z,17.38
2018-05-24T05:12:12.532Z,17.32
2018-05-24T05:14:08.473Z,17.46
2018-05-24T05:15:08.492Z,17.49
2018-05-24T05:17:01.953Z,17.46
2018-05-24T05:18:01.956Z,17.54
2018-05-24T05:19:57.925Z,17.54
2018-05-24T05:20:58.409Z,17.60
2018-05-24T05:22:52.359Z,17.58
2018-05-24T05:23:52.339Z,17.60
2018-05-24T05:25:48.888Z,17.58
2018-05-24T05:26:48.312Z,17.63
2018-05-24T05:28:42.776Z,17.73
2018-05-24T05:29:42.743Z,17.69
2018-05-24T05:31:37.163Z,17.76
2018-05-24T05:32:37.166Z,17.76
2018-05-24T05:34:31.582Z,17.88
2018-05-24T05:35:31.597Z,17.88
2018-05-24T05:37:27.565Z,18.01
2018-05-24T05:38:27.551Z,17.90
2018-05-24T05:40:22.534Z,18.05
2018-05-24T05:41:21.981Z,17.98
2018-05-24T05:43:15.965Z,18.14
2018-05-24T05:44:15.464Z,18.14
2018-05-24T05:46:09.917Z,18.42
2018-05-24T05:47:10.407Z,18.35
2018-05-24T05:49:03.335Z,18.47
2018-05-24T05:50:03.341Z,18.59
2018-05-24T05:51:58.848Z,18.65
2018-05-24T05:52:57.800Z,18.79
2018-05-24T05:54:53.760Z,18.84
2018-05-24T05:55:52.250Z,18.81
2018-05-24T05:57:46.701Z,18.89
2018-05-24T05:58:46.702Z,18.96
2018-05-24T06:00:41.658Z,19.10
2018-05-24T06:01:42.254Z,19.12
2018-05-24T06:03:36.120Z,19.10
2018-05-24T06:04:35.602Z,19.27
2018-05-24T06:06:32.064Z,19.31
2018-05-24T06:07:31.551Z,19.32
2018-05-24T06:09:28.025Z,19.55
2018-05-24T06:10:26.532Z,19.56
2018-05-24T06:12:21.015Z,19.64
2018-05-24T06:13:21.489Z,19.65
2018-05-24T06:15:15.465Z,19.68
2018-05-24T06:16:14.938Z,19.74
2018-05-24T06:18:10.399Z,19.74
2018-05-24T06:19:09.913Z,19.75
2018-05-24T06:21:03.347Z,19.82
2018-05-24T06:22:02.800Z,19.90
2018-05-24T06:23:58.188Z,19.93
2018-05-24T06:24:56.771Z,19.92
2018-05-24T06:26:51.232Z,19.92
2018-05-24T06:27:50.710Z,19.92
2018-05-24T06:29:46.682Z,19.97
2018-05-24T06:30:47.171Z,19.97
2018-05-24T06:32:41.116Z,20.10
2018-05-24T06:33:41.620Z,20.11
2018-05-24T06:35:37.113Z,20.22
2018-05-24T06:36:37.082Z,20.19
2018-05-24T06:38:32.532Z,20.30
2018-05-24T06:39:31.535Z,20.37
2018-05-24T06:41:25.933Z,20.41
2018-05-24T06:42:25.960Z,20.46
2018-05-24T06:44:22.482Z,20.58
2018-05-24T06:45:22.426Z,20.44
2018-05-24T06:47:18.364Z,20.48
2018-05-24T06:48:18.868Z,20.37
2018-05-24T06:50:12.341Z,20.23
2018-05-24T06:51:12.835Z,20.23
2018-05-24T06:53:07.776Z,20.35
2018-05-24T06:54:06.788Z,20.37
2018-05-24T06:56:02.241Z,20.58
2018-05-24T06:57:01.259Z,20.64
2018-05-24T06:58:57.702Z,20.60
2018-05-24T06:59:57.306Z,20.64
2018-05-24T07:01:55.651Z,20.71
2018-05-24T07:02:54.165Z,20.71
2018-05-24T07:04:48.124Z,20.78
2018-05-24T07:05:48.709Z,20.78
2018-05-24T07:07:44.607Z,20.85
2018-05-24T07:08:43.618Z,20.86
2018-05-24T07:10:37.089Z,20.68
2018-05-24T07:11:39.064Z,20.68
2018-05-24T07:13:30.555Z,20.83
2018-05-24T07:14:30.537Z,20.96
2018-05-24T07:16:26.495Z,20.98
2018-05-24T07:17:26.495Z,21.01
2018-05-24T07:19:19.921Z,21.03
2018-05-24T07:20:19.937Z,21.18
2018-05-24T07:22:14.394Z,21.34
2018-05-24T07:23:14.392Z,21.25
2018-05-24T07:25:09.863Z,21.34
2018-05-24T07:26:08.887Z,21.34
2018-05-24T07:28:02.844Z,21.31
2018-05-24T07:29:03.319Z,21.41
2018-05-24T07:30:59.255Z,21.55
2018-05-24T07:31:58.280Z,21.53
2018-05-24T07:33:54.240Z,21.66
2018-05-24T07:34:54.256Z,21.73
2018-05-24T07:36:47.681Z,21.93
2018-05-24T07:37:48.250Z,21.93
2018-05-24T07:39:41.683Z,21.93
2018-05-24T07:40:41.139Z,21.99
2018-05-24T07:42:36.629Z,22.22
2018-05-24T07:43:35.619Z,22.14
2018-05-24T07:45:29.065Z,22.18
2018-05-24T07:46:29.053Z,22.33
2018-05-24T07:48:23.472Z,22.41
2018-05-24T07:49:23.484Z,22.51
2018-05-24T07:51:19.470Z,22.34
2018-05-24T07:52:19.445Z,22.38
2018-05-24T07:54:14.872Z,22.26
2018-05-24T07:55:12.919Z,22.24
2018-05-24T07:57:09.890Z,22.29
2018-05-24T07:58:09.389Z,22.26
2018-05-24T08:00:04.836Z,22.23
2018-05-24T08:01:04.850Z,22.26
2018-05-24T08:02:59.304Z,22.31
2018-05-24T08:03:59.306Z,22.38
2018-05-24T08:05:55.287Z,22.55
2018-05-24T08:06:55.314Z,22.60
2018-05-24T08:08:52.290Z,22.48
2018-05-24T08:11:05.267Z,22.33
2018-05-24T08:12:04.355Z,22.27
2018-05-24T08:13:59.311Z,22.38
2018-05-24T08:14:58.821Z,22.30
2018-05-24T08:16:53.280Z,22.30
2018-05-24T08:17:54.200Z,22.45
2018-05-24T08:19:49.239Z,22.54
2018-05-24T08:20:47.721Z,22.66
2018-05-24T08:22:42.686Z,22.67
2018-05-24T08:23:42.686Z,22.70
2018-05-24T08:25:38.638Z,22.88
2018-05-24T08:26:38.127Z,23.00
2018-05-24T08:28:32.583Z,23.07
2018-05-24T08:29:33.092Z,23.01
2018-05-24T08:31:26.548Z,23.19
2018-05-24T08:32:26.027Z,23.40
2018-05-24T08:34:19.518Z,23.42
2018-05-24T08:35:19.508Z,23.50
2018-05-24T08:37:13.966Z,23.47
2018-05-24T08:38:13.948Z,23.34
2018-05-24T08:40:07.429Z,23.35
2018-05-24T08:41:07.946Z,23.47
2018-05-24T08:43:02.885Z,23.38
2018-05-24T08:44:01.893Z,23.42
2018-05-24T08:45:55.343Z,23.53
2018-05-24T08:46:55.355Z,23.56
2018-05-24T08:48:50.321Z,23.72
2018-05-24T08:49:49.817Z,23.66
2018-05-24T08:51:43.292Z,23.89
2018-05-24T08:52:43.274Z,23.96
2018-05-24T08:54:37.877Z,23.99
2018-05-24T08:55:37.727Z,23.94
2018-05-24T08:57:33.695Z,23.96
2018-05-24T08:58:33.685Z,23.96
2018-05-24T09:00:29.147Z,23.94
2018-05-24T09:01:28.226Z,24.08
2018-05-24T09:03:24.621Z,24.26
2018-05-24T09:04:24.115Z,24.45
2018-05-24T09:06:17.856Z,24.55
2018-05-24T09:07:17.863Z,24.61
2018-05-24T09:09:14.819Z,24.66
2018-05-24T09:10:13.826Z,24.74
2018-05-24T09:12:09.889Z,24.51
2018-05-24T09:13:09.910Z,24.44
2018-05-24T09:15:05.882Z,24.54
2018-05-24T09:16:05.877Z,24.54
2018-05-24T09:17:59.334Z,24.63
2018-05-24T09:18:59.347Z,24.56
2018-05-24T09:20:53.802Z,24.55
2018-05-24T09:21:53.841Z,24.77
2018-05-24T09:23:50.271Z,24.96
2018-05-24T09:24:50.770Z,24.63
2018-05-24T09:26:46.252Z,24.32
2018-05-24T09:27:44.258Z,24.26
2018-05-24T09:29:40.264Z,24.36
2018-05-24T09:30:40.243Z,24.56
2018-05-24T09:32:35.215Z,24.51
2018-05-24T09:33:34.715Z,24.45
2018-05-24T09:35:30.658Z,24.63
2018-05-24T09:36:31.181Z,24.74
2018-05-24T09:38:25.641Z,24.83
2018-05-24T09:39:25.136Z,24.93
2018-05-24T09:41:21.073Z,24.69
2018-05-24T09:42:21.616Z,24.51
2018-05-24T09:44:19.037Z,24.12
2018-05-24T09:45:17.545Z,24.11
2018-05-24T09:47:13.541Z,24.09
2018-05-24T09:48:13.513Z,24.12
2018-05-24T09:50:09.496Z,24.09
2018-05-24T09:51:08.995Z,24.02
2018-05-24T09:53:04.982Z,24.14
2018-05-24T09:54:05.981Z,24.12
2018-05-24T09:56:00.997Z,24.14
2018-05-24T09:57:00.966Z,24.12
2018-05-24T09:58:56.926Z,24.19
2018-05-24T09:59:57.934Z,24.34
2018-05-24T10:01:52.893Z,24.32
2018-05-24T10:02:52.886Z,24.32
2018-05-24T10:04:48.827Z,24.51
2018-05-24T10:05:48.849Z,24.54
2018-05-24T10:07:45.328Z,24.21
2018-05-24T10:08:44.800Z,24.07
2018-05-24T10:10:42.360Z,23.96
2018-05-24T10:11:41.786Z,24.04
2018-05-24T10:13:36.324Z,24.09
2018-05-24T10:14:36.254Z,24.18
2018-05-24T10:16:32.286Z,24.33
2018-05-24T10:17:32.724Z,24.26
2018-05-24T10:19:30.171Z,24.51
2018-05-24T10:20:28.241Z,24.56
2018-05-24T10:22:24.180Z,24.74
2018-05-24T10:23:24.249Z,24.78
2018-05-24T10:25:21.163Z,24.83
2018-05-24T10:26:21.161Z,24.83
2018-05-24T10:28:16.636Z,24.93
2018-05-24T10:29:16.145Z,25.07
2018-05-24T10:31:15.099Z,25.05
2018-05-24T10:32:14.057Z,24.82
2018-05-24T10:34:09.033Z,24.66
2018-05-24T10:35:08.543Z,24.64
2018-05-24T10:37:06.024Z,24.90
2018-05-24T10:38:04.515Z,24.67
2018-05-24T10:40:00.495Z,24.77
2018-05-24T10:41:00.507Z,24.93
2018-05-24T10:42:57.000Z,25.11
2018-05-24T10:45:15.574Z,25.08
2018-05-24T10:46:14.658Z,25.01
2018-05-24T10:48:11.123Z,24.75
2018-05-24T10:49:10.650Z,24.58
2018-05-24T10:51:06.613Z,24.54
2018-05-24T10:52:06.557Z,24.55
2018-05-24T10:54:04.750Z,24.61
2018-05-24T10:55:05.540Z,24.67
2018-05-24T10:57:01.172Z,24.70
2018-05-24T10:58:00.670Z,24.85
2018-05-24T10:59:56.653Z,24.89
2018-05-24T11:00:57.152Z,24.82
2018-05-24T11:02:52.595Z,24.56
2018-05-24T11:03:52.606Z,24.59
2018-05-24T11:05:50.575Z,24.52
2018-05-24T11:06:50.578Z,24.52
2018-05-24T11:08:46.515Z,24.52
2018-05-24T11:09:46.529Z,24.64
2018-05-24T11:11:43.062Z,25.02
2018-05-24T11:12:42.505Z,25.04
2018-05-24T11:14:38.488Z,25.08
2018-05-24T11:15:38.464Z,25.17
2018-05-24T11:17:34.453Z,25.19
2018-05-24T11:18:35.433Z,25.27
2018-05-24T11:20:30.403Z,25.20
2018-05-24T11:21:30.415Z,25.26
2018-05-24T11:23:30.857Z,25.12
2018-05-24T11:24:31.397Z,25.14
2018-05-24T11:26:27.849Z,25.12
2018-05-24T11:27:27.838Z,25.04
2018-05-24T11:29:23.321Z,25.05
2018-05-24T11:30:23.318Z,25.01
2018-05-24T11:32:19.281Z,25.14
2018-05-24T11:33:18.777Z,25.20
2018-05-24T11:35:15.762Z,25.19
2018-05-24T11:36:14.760Z,25.20
2018-05-24T11:38:10.724Z,25.17
2018-05-24T11:39:10.734Z,25.11
2018-05-24T11:41:06.718Z,25.20
2018-05-24T11:42:06.688Z,25.23
2018-05-24T11:44:03.639Z,25.11
2018-05-24T11:45:02.627Z,25.20
2018-05-24T11:47:00.106Z,25.22
2018-05-24T11:47:58.595Z,25.12
2018-05-24T11:49:55.054Z,25.20
2018-05-24T11:50:54.565Z,25.07
2018-05-24T11:52:54.034Z,24.87
2018-05-24T11:53:52.525Z,25.00
2018-05-24T11:55:49.984Z,24.93
2018-05-24T11:56:48.513Z,24.85
2018-05-24T11:58:44.461Z,24.85
2018-05-24T11:59:44.456Z,24.82
2018-05-24T12:01:40.372Z,24.89
2018-05-24T12:02:40.444Z,24.86
2018-05-24T12:04:36.347Z,24.93
2018-05-24T12:05:36.860Z,24.93
2018-05-24T12:07:33.318Z,25.05
2018-05-24T12:08:32.329Z,25.11
2018-05-24T12:10:29.308Z,25.11
2018-05-24T12:11:28.808Z,25.12
2018-05-24T12:13:24.297Z,25.20
2018-05-24T12:14:24.264Z,25.20
2018-05-24T12:16:21.250Z,25.15
2018-05-24T12:17:20.261Z,25.07
2018-05-24T12:19:16.228Z,25.12
2018-05-24T12:20:16.223Z,25.12
2018-05-24T12:22:12.712Z,25.07
2018-05-24T12:23:13.710Z,25.04
2018-05-24T12:25:09.690Z,24.93
2018-05-24T12:26:08.689Z,24.92
2018-05-24T12:28:05.616Z,24.89
2018-05-24T12:29:04.191Z,24.80
2018-05-24T12:31:00.587Z,24.93
2018-05-24T12:32:00.585Z,24.89
2018-05-24T12:33:56.045Z,25.09
2018-05-24T12:34:56.041Z,25.09
2018-05-24T12:36:53.508Z,25.26
2018-05-24T12:37:52.011Z,25.27
2018-05-24T12:39:48.986Z,25.33
2018-05-24T12:40:48.966Z,25.39
2018-05-24T12:42:42.485Z,25.07
2018-05-24T12:43:42.464Z,25.00
2018-05-24T12:45:41.435Z,25.02
2018-05-24T12:46:40.445Z,25.04
2018-05-24T12:48:36.388Z,25.26
2018-05-24T12:49:36.912Z,25.48
2018-05-24T12:51:32.890Z,25.38
2018-05-24T12:52:32.379Z,25.23
2018-05-24T12:54:28.333Z,25.29
2018-05-24T12:56:45.293Z,25.38
2018-05-24T12:59:00.771Z,25.54
2018-05-24T13:00:00.264Z,25.54
2018-05-24T13:01:58.451Z,25.66
2018-05-24T13:02:58.441Z,25.67
2018-05-24T13:04:55.405Z,25.54
2018-05-24T13:05:54.432Z,25.44
2018-05-24T13:07:50.401Z,25.48
2018-05-24T13:08:51.392Z,25.57
2018-05-24T13:10:46.879Z,25.64
2018-05-24T13:11:46.342Z,25.78
2018-05-24T13:13:44.322Z,25.59
2018-05-24T13:14:45.335Z,25.51
2018-05-24T13:16:40.795Z,25.48
2018-05-24T13:17:40.300Z,25.48
2018-05-24T13:19:36.242Z,25.48
2018-05-24T13:20:36.270Z,25.56
2018-05-24T13:22:32.161Z,25.62
2018-05-24T13:23:30.730Z,25.71
2018-05-24T13:25:25.701Z,25.64
2018-05-24T13:26:25.697Z,25.52
2018-05-24T13:28:21.178Z,25.47
2018-05-24T13:29:21.177Z,25.52
2018-05-24T13:31:14.645Z,25.78
2018-05-24T13:32:15.122Z,25.79
2018-05-24T13:34:10.592Z,25.74
2018-05-24T13:35:10.655Z,25.54
2018-05-24T13:37:08.546Z,25.45
2018-05-24T13:38:06.544Z,25.52
2018-05-24T13:40:03.041Z,25.27
2018-05-24T13:41:02.507Z,25.11
2018-05-24T13:42:56.005Z,25.09
2018-05-24T13:43:55.980Z,25.15
2018-05-24T13:45:50.942Z,25.34
2018-05-24T13:46:51.435Z,25.39
2018-05-24T13:48:46.426Z,25.47
2018-05-24T13:49:46.396Z,25.45
2018-05-24T13:51:42.446Z,25.39
2018-05-24T13:52:42.350Z,25.37
2018-05-24T13:54:36.827Z,25.39
2018-05-24T13:55:37.810Z,25.39
2018-05-24T13:57:32.813Z,25.22
2018-05-24T13:58:32.813Z,25.02
2018-05-24T14:00:26.270Z,25.01
2018-05-24T14:01:26.792Z,25.14
2018-05-24T14:03:22.264Z,25.09
2018-05-24T14:04:22.247Z,25.17
2018-05-24T14:06:17.211Z,25.23
2018-05-24T14:07:16.721Z,25.26
2018-05-24T14:09:10.216Z,25.39
2018-05-24T14:10:10.195Z,25.42
2018-05-24T14:12:06.124Z,25.66
2018-05-24T14:13:06.137Z,25.76
2018-05-24T14:15:01.610Z,25.74
2018-05-24T14:16:00.613Z,25.78
2018-05-24T14:17:57.080Z,25.64
2018-05-24T14:18:56.572Z,25.57
2018-05-24T14:20:53.034Z,25.70
2018-05-24T14:21:52.523Z,25.70
2018-05-24T14:23:47.493Z,25.74
2018-05-24T14:24:46.982Z,25.56
2018-05-24T14:26:39.506Z,25.47
2018-05-24T14:27:39.474Z,25.49
2018-05-24T14:29:34.554Z,25.33
2018-05-24T14:30:34.528Z,25.45
2018-05-24T14:32:28.983Z,25.51
2018-05-24T14:33:29.000Z,25.39
2018-05-24T14:35:26.463Z,25.42
2018-05-24T14:36:24.954Z,25.15
2018-05-24T14:38:21.450Z,24.82
2018-05-24T14:39:20.966Z,24.83
2018-05-24T14:41:16.918Z,24.63
2018-05-24T14:42:16.927Z,24.63
2018-05-24T14:44:12.387Z,24.48
2018-05-24T14:45:12.386Z,24.30
2018-05-24T14:47:10.362Z,24.07
2018-05-24T14:49:23.335Z,23.85
2018-05-24T14:50:23.340Z,23.82
2018-05-24T14:52:20.308Z,23.64
2018-05-24T14:53:19.378Z,23.63
2018-05-24T14:55:15.313Z,23.55
2018-05-24T14:56:15.326Z,23.59
2018-05-24T14:58:09.804Z,23.64
2018-05-24T14:59:10.297Z,23.57
2018-05-24T15:01:07.229Z,23.62
2018-05-24T15:02:05.706Z,23.67
2018-05-24T15:04:03.842Z,23.71
2018-05-24T15:05:04.678Z,23.67
2018-05-24T15:07:00.810Z,23.77
2018-05-24T15:07:59.827Z,23.66
2018-05-24T15:09:56.792Z,23.78
2018-05-24T15:10:56.322Z,23.87
2018-05-24T15:12:49.270Z,23.85
2018-05-24T15:13:49.744Z,23.87
2018-05-24T15:15:42.782Z,24.00
2018-05-24T15:16:42.728Z,23.99
2018-05-24T15:18:39.734Z,24.09
2018-05-24T15:19:39.684Z,24.27
2018-05-24T15:21:35.653Z,24.27
2018-05-24T15:22:35.679Z,24.33
2018-05-24T15:24:30.134Z,24.37
2018-05-24T15:25:30.142Z,24.54
2018-05-24T15:27:26.139Z,24.51
2018-05-24T15:28:26.081Z,24.48
2018-05-24T15:30:22.031Z,24.55
2018-05-24T15:31:22.056Z,24.67
2018-05-24T15:33:18.043Z,24.66
2018-05-24T15:34:18.031Z,24.64
2018-05-24T15:36:13.498Z,24.49
2018-05-24T15:37:13.501Z,24.46
2018-05-24T15:39:06.025Z,24.52
2018-05-24T15:40:06.015Z,24.54
2018-05-24T15:42:02.979Z,24.74
2018-05-24T15:43:01.964Z,24.66
2018-05-24T15:44:55.420Z,24.83
2018-05-24T15:45:55.416Z,24.67
2018-05-24T15:47:49.379Z,24.64
2018-05-24T15:48:48.924Z,24.67
2018-05-24T15:50:46.348Z,24.52
2018-05-24T15:51:45.344Z,24.61
2018-05-24T15:53:39.302Z,24.55
2018-05-24T15:54:39.287Z,24.69
2018-05-24T15:56:35.261Z,24.80
2018-05-24T15:57:35.285Z,24.75
2018-05-24T15:59:28.701Z,24.86
2018-05-24T16:00:28.706Z,24.92
2018-05-24T16:02:24.685Z,25.08
2018-05-24T16:03:24.709Z,25.04
2018-05-24T16:05:19.167Z,24.94
2018-05-24T16:06:19.155Z,24.86
2018-05-24T16:08:13.632Z,24.64
2018-05-24T16:09:13.601Z,24.64
2018-05-24T16:11:07.079Z,24.59
2018-05-24T16:12:07.066Z,24.61
2018-05-24T16:14:02.043Z,24.56
2018-05-24T16:15:01.526Z,24.59
2018-05-24T16:16:57.530Z,24.45
2018-05-24T16:17:58.484Z,24.55
2018-05-24T16:19:53.538Z,24.37
2018-05-24T16:20:54.459Z,24.29
2018-05-24T16:22:49.995Z,24.18
2018-05-24T16:23:50.471Z,24.19
2018-05-24T16:25:48.476Z,24.04
2018-05-24T16:26:45.486Z,24.02
2018-05-24T16:28:42.948Z,23.96
2018-05-24T16:29:42.879Z,23.89
2018-05-24T16:31:37.243Z,23.87
2018-05-24T16:32:36.710Z,23.90
2018-05-24T16:34:30.177Z,23.89
2018-05-24T16:35:30.177Z,23.89
2018-05-24T16:37:25.138Z,23.87
2018-05-24T16:38:25.154Z,23.85
2018-05-24T16:40:20.625Z,23.78
2018-05-24T16:41:20.673Z,23.84
2018-05-24T16:43:16.079Z,23.90
2018-05-24T16:44:15.050Z,23.78
2018-05-24T16:46:11.547Z,23.87
2018-05-24T16:47:11.022Z,23.85
2018-05-24T16:49:05.520Z,23.96
2018-05-24T16:50:05.499Z,23.96
2018-05-24T16:52:01.509Z,24.00
2018-05-24T16:53:02.467Z,24.08
2018-05-24T16:54:55.008Z,24.04
2018-05-24T16:55:55.017Z,24.21
2018-05-24T16:57:49.983Z,24.21
2018-05-24T16:58:49.464Z,24.22
2018-05-24T17:00:47.947Z,24.27
2018-05-24T17:01:47.625Z,24.30
2018-05-24T17:03:43.557Z,24.27
2018-05-24T17:04:43.554Z,24.36
2018-05-24T17:06:39.555Z,24.29
2018-05-24T17:07:39.547Z,24.24
2018-05-24T17:09:33.997Z,24.24
2018-05-24T17:10:34.012Z,24.19
2018-05-24T17:12:32.505Z,23.93
2018-05-24T17:13:30.003Z,23.97
2018-05-24T17:15:25.977Z,23.67
2018-05-24T17:16:25.981Z,23.82
2018-05-24T17:18:21.967Z,23.74
2018-05-24T17:19:21.970Z,23.89
2018-05-24T17:21:17.876Z,23.85
2018-05-24T17:22:17.876Z,23.89
2018-05-24T17:24:14.831Z,23.87
2018-05-24T17:25:13.843Z,23.82
2018-05-24T17:27:08.296Z,23.71
2018-05-24T17:28:08.289Z,23.70
2018-05-24T17:30:04.276Z,23.66
2018-05-24T17:31:04.264Z,23.57
2018-05-24T17:33:01.657Z,23.60
2018-05-24T17:34:01.762Z,23.63
2018-05-24T17:35:55.581Z,23.50
2018-05-24T17:36:55.581Z,23.35
2018-05-24T17:38:52.463Z,23.40
2018-05-24T17:39:51.565Z,23.34
2018-05-24T17:41:48.045Z,23.24
2018-05-24T17:42:47.511Z,23.22
2018-05-24T17:44:43.459Z,23.25
2018-05-24T17:45:43.468Z,23.26
2018-05-24T17:47:39.944Z,23.22
2018-05-24T17:48:39.432Z,23.21
2018-05-24T17:50:35.906Z,23.06
2018-05-24T17:51:34.912Z,23.07
2018-05-24T17:53:29.917Z,23.22
2018-05-24T17:54:30.413Z,23.07
2018-05-24T17:56:23.387Z,22.96
2018-05-24T17:57:23.391Z,23.03
2018-05-24T17:59:19.325Z,22.96
2018-05-24T18:00:19.330Z,22.97
2018-05-24T18:02:13.836Z,23.04
2018-05-24T18:03:13.848Z,22.96
2018-05-24T18:05:12.750Z,22.99
2018-05-24T18:06:11.967Z,22.89
2018-05-24T18:08:07.954Z,22.96
2018-05-24T18:09:07.944Z,23.00
2018-05-24T18:11:02.925Z,22.96
2018-05-24T18:12:02.560Z,22.91
2018-05-24T18:13:58.373Z,22.97
2018-05-24T18:14:58.401Z,22.89
2018-05-24T18:16:54.305Z,22.86
2018-05-24T18:17:54.794Z,22.73
2018-05-24T18:19:47.772Z,22.81
2018-05-24T18:20:47.767Z,22.81
2018-05-24T18:22:43.757Z,22.70
2018-05-24T18:23:43.736Z,22.67
2018-05-24T18:25:39.692Z,22.70
2018-05-24T18:26:39.717Z,22.71
2018-05-24T18:28:35.154Z,22.81
2018-05-24T18:29:34.170Z,22.86
2018-05-24T18:31:27.624Z,22.79
2018-05-24T18:32:28.155Z,22.81
2018-05-24T18:34:23.621Z,22.66
2018-05-24T18:35:23.621Z,22.69
2018-05-24T18:37:19.551Z,22.59
2018-05-24T18:38:19.556Z,22.61
2018-05-24T18:40:17.449Z,22.63
2018-05-24T18:41:15.525Z,22.61
2018-05-24T18:43:09.991Z,22.66
2018-05-24T18:44:09.993Z,22.55
2018-05-24T18:46:06.454Z,22.48
2018-05-24T18:47:05.951Z,22.44
2018-05-24T18:49:01.413Z,22.39
2018-05-24T18:50:00.384Z,22.33